createdAt,value
2023-06-19T00:02:07.615Z,16.55
2023-06-19T00:04:34.582Z,16.62
2023-06-19T00:07:01.918Z,16.57
2023-06-19T00:09:28.910Z,16.45
2023-06-19T00:11:55.759Z,16.54
2023-06-19T00:14:22.616Z,16.69
2023-06-19T00:16:49.522Z,16.61
2023-06-19T00:19:16.394Z,16.58
2023-06-19T00:21:43.285Z,16.58
2023-06-19T00:24:11.872Z,16.57
2023-06-19T00:26:39.169Z,16.60
2023-06-19T00:29:05.999Z,16.57
2023-06-19T00:31:32.900Z,16.57
2023-06-19T00:33:59.734Z,16.54
2023-06-19T00:36:26.551Z,16.58
2023-06-19T00:38:53.730Z,16.63
2023-06-19T00:41:21.432Z,16.63
2023-06-19T00:43:48.277Z,16.52
2023-06-19T00:46:15.194Z,16.52
2023-06-19T00:48:42.214Z,16.46
2023-06-19T00:51:09.249Z,16.51
2023-06-19T00:53:36.944Z,16.35
2023-06-19T00:56:05.165Z,16.41
2023-06-19T00:58:32.396Z,16.45
2023-06-19T01:01:07.912Z,16.54
2023-06-19T01:03:36.945Z,16.37
2023-06-19T01:06:06.973Z,16.34
2023-06-19T01:09:06.756Z,16.26
2023-06-19T01:11:38.973Z,16.20
2023-06-19T01:14:14.257Z,16.17
2023-06-19T01:16:42.439Z,16.15
2023-06-19T01:19:12.318Z,16.19
2023-06-19T01:21:39.633Z,16.26
2023-06-19T01:24:06.757Z,16.28
2023-06-19T01:26:33.892Z,16.31
2023-06-19T01:29:01.049Z,16.29
2023-06-19T01:31:42.023Z,16.30
2023-06-19T01:34:11.408Z,16.30
2023-06-19T01:36:38.621Z,16.18
2023-06-19T01:39:06.598Z,16.20
2023-06-19T01:41:34.223Z,16.21
2023-06-19T01:44:01.723Z,16.24
2023-06-19T01:46:28.677Z,16.30
2023-06-19T01:48:55.804Z,16.33
2023-06-19T01:51:22.767Z,16.32
2023-06-19T01:53:49.698Z,16.35
2023-06-19T01:56:16.715Z,16.46
2023-06-19T01:58:43.600Z,16.41
2023-06-19T02:01:10.631Z,16.41
2023-06-19T02:03:37.565Z,16.46
2023-06-19T02:06:04.443Z,16.42
2023-06-19T02:08:31.318Z,16.42
2023-06-19T02:10:58.278Z,16.46
2023-06-19T02:13:25.106Z,16.63
2023-06-19T02:15:52.056Z,16.66
2023-06-19T02:18:19.112Z,16.63
2023-06-19T02:20:46.039Z,16.63
2023-06-19T02:23:12.947Z,16.61
2023-06-19T02:25:39.823Z,16.58
2023-06-19T02:28:06.784Z,16.64
2023-06-19T02:30:33.682Z,16.62
2023-06-19T02:33:00.634Z,16.61
2023-06-19T02:35:27.782Z,16.65
2023-06-19T02:37:54.647Z,16.66
2023-06-19T02:40:21.759Z,16.68
2023-06-19T02:42:48.930Z,16.64
2023-06-19T02:45:16.025Z,16.76
2023-06-19T02:47:42.854Z,16.72
2023-06-19T02:50:10.087Z,16.71
2023-06-19T02:52:36.928Z,16.53
2023-06-19T02:55:04.026Z,16.55
2023-06-19T02:57:31.029Z,16.38
2023-06-19T02:59:57.933Z,16.42
2023-06-19T03:02:24.804Z,16.39
2023-06-19T03:04:51.957Z,16.47
2023-06-19T03:07:18.841Z,16.39
2023-06-19T03:09:45.654Z,16.36
2023-06-19T03:12:12.531Z,16.38
2023-06-19T03:14:39.414Z,16.31
2023-06-19T03:17:06.798Z,16.48
2023-06-19T03:19:33.845Z,16.58
2023-06-19T03:22:00.713Z,16.58
2023-06-19T03:24:27.757Z,16.67
2023-06-19T03:26:54.695Z,16.70
2023-06-19T03:29:21.737Z,16.65
2023-06-19T03:31:48.572Z,16.72
2023-06-19T03:34:15.416Z,16.79
2023-06-19T03:36:42.367Z,16.70
2023-06-19T03:39:09.242Z,16.69
2023-06-19T03:41:36.145Z,16.70
2023-06-19T03:44:03.026Z,16.72
2023-06-19T03:46:29.913Z,16.70
2023-06-19T03:48:56.764Z,16.73
2023-06-19T03:51:23.676Z,16.76
2023-06-19T03:53:50.589Z,16.72
2023-06-19T03:56:17.469Z,16.72
2023-06-19T03:58:44.366Z,16.88
2023-06-19T04:01:11.270Z,16.83
2023-06-19T04:03:40.402Z,16.91
2023-06-19T04:06:08.991Z,16.89
2023-06-19T04:08:35.875Z,17.00
2023-06-19T04:11:02.752Z,17.01
2023-06-19T04:13:29.761Z,17.00
2023-06-19T04:15:56.643Z,16.99
2023-06-19T04:18:23.538Z,16.99
2023-06-19T04:20:50.401Z,16.96
2023-06-19T04:23:17.273Z,16.93
2023-06-19T04:25:44.064Z,16.79
2023-06-19T04:28:11.038Z,16.74
2023-06-19T04:30:37.890Z,16.78
2023-06-19T04:33:04.816Z,16.39
2023-06-19T04:35:31.689Z,16.02
2023-06-19T04:37:58.785Z,15.87
2023-06-19T04:40:25.758Z,15.83
2023-06-19T04:42:53.131Z,15.47
2023-06-19T04:45:20.110Z,15.28
2023-06-19T04:47:53.234Z,15.17
2023-06-19T04:50:22.943Z,15.05
2023-06-19T04:52:50.211Z,15.26
2023-06-19T04:55:17.461Z,15.21
2023-06-19T04:57:44.464Z,15.00
2023-06-19T05:00:11.934Z,14.86
2023-06-19T05:02:38.967Z,14.60
2023-06-19T05:05:06.517Z,14.46
2023-06-19T05:07:33.902Z,14.51
2023-06-19T05:10:00.892Z,14.64
2023-06-19T05:12:27.809Z,14.79
2023-06-19T05:14:54.761Z,14.93
2023-06-19T05:17:21.908Z,14.94
2023-06-19T05:19:49.176Z,15.05
2023-06-19T05:22:16.118Z,15.15
2023-06-19T05:24:43.148Z,15.09
2023-06-19T05:27:10.175Z,15.23
2023-06-19T05:29:37.071Z,15.14
2023-06-19T05:32:04.271Z,15.10
2023-06-19T05:34:31.206Z,14.81
2023-06-19T05:36:59.564Z,14.62
2023-06-19T05:39:26.393Z,14.51
2023-06-19T05:41:53.425Z,14.43
2023-06-19T05:44:20.332Z,14.16
2023-06-19T05:46:47.173Z,14.08
2023-06-19T05:49:14.080Z,13.94
2023-06-19T05:51:40.908Z,13.79
2023-06-19T05:54:07.705Z,13.64
2023-06-19T05:56:34.783Z,13.61
2023-06-19T05:59:02.425Z,13.62
2023-06-19T06:01:30.413Z,13.58
2023-06-19T06:03:58.379Z,13.65
2023-06-19T06:06:25.670Z,13.53
2023-06-19T06:08:52.827Z,13.51
2023-06-19T06:11:20.019Z,13.53
2023-06-19T06:13:46.965Z,13.43
2023-06-19T06:16:13.815Z,13.47
2023-06-19T06:18:40.760Z,13.47
2023-06-19T06:21:07.602Z,13.58
2023-06-19T06:23:34.400Z,13.70
2023-06-19T06:26:01.298Z,13.85
2023-06-19T06:28:34.036Z,14.01
2023-06-19T06:31:00.913Z,14.06
2023-06-19T06:33:28.817Z,14.11
2023-06-19T06:35:56.413Z,14.29
2023-06-19T06:38:23.519Z,14.38
2023-06-19T06:40:50.559Z,14.58
2023-06-19T06:43:17.617Z,14.77
2023-06-19T06:45:44.605Z,14.89
2023-06-19T06:48:11.510Z,15.11
2023-06-19T06:50:38.378Z,15.21
2023-06-19T06:53:05.313Z,15.44
2023-06-19T06:55:32.230Z,15.48
2023-06-19T06:57:59.102Z,15.67
2023-06-19T07:00:26.175Z,15.75
2023-06-19T07:02:53.348Z,15.74
2023-06-19T07:05:21.827Z,15.81
2023-06-19T07:07:48.776Z,15.83
2023-06-19T07:10:15.647Z,15.44
2023-06-19T07:12:49.573Z,15.10
2023-06-19T07:15:17.181Z,15.02
2023-06-19T07:17:45.971Z,14.95
2023-06-19T07:20:13.366Z,15.03
2023-06-19T07:22:40.826Z,15.11
2023-06-19T07:25:08.231Z,15.27
2023-06-19T07:27:35.268Z,15.64
2023-06-19T07:30:02.257Z,15.99
2023-06-19T07:32:29.190Z,16.26
2023-06-19T07:34:56.250Z,16.39
2023-06-19T07:37:23.178Z,16.44
2023-06-19T07:39:51.797Z,16.68
2023-06-19T07:42:20.104Z,16.94
2023-06-19T07:44:47.332Z,17.14
2023-06-19T07:47:18.244Z,17.19
2023-06-19T07:49:45.520Z,17.31
2023-06-19T07:52:12.600Z,17.43
2023-06-19T07:54:52.734Z,17.42
2023-06-19T07:57:19.776Z,17.14
2023-06-19T07:59:47.674Z,16.71
2023-06-19T08:02:14.776Z,16.58
2023-06-19T08:04:41.832Z,16.58
2023-06-19T08:07:08.898Z,16.72
2023-06-19T08:09:36.006Z,16.59
2023-06-19T08:12:03.727Z,16.55
2023-06-19T08:14:30.616Z,16.49
2023-06-19T08:16:57.627Z,16.36
2023-06-19T08:19:24.522Z,16.52
2023-06-19T08:21:51.384Z,16.42
2023-06-19T08:24:18.404Z,16.39
2023-06-19T08:26:45.279Z,16.41
2023-06-19T08:29:12.113Z,16.46
2023-06-19T08:31:38.991Z,16.53
2023-06-19T08:34:05.834Z,16.48
2023-06-19T08:36:32.625Z,16.55
2023-06-19T08:38:59.619Z,16.54
2023-06-19T08:41:26.433Z,16.68
2023-06-19T08:43:53.454Z,16.86
2023-06-19T08:46:20.480Z,16.99
2023-06-19T08:48:47.802Z,17.04
2023-06-19T08:51:14.739Z,16.95
2023-06-19T08:53:55.866Z,16.85
2023-06-19T08:56:23.144Z,16.75
2023-06-19T08:58:50.051Z,16.76
2023-06-19T09:01:20.678Z,16.99
2023-06-19T09:03:48.379Z,16.92
2023-06-19T09:06:17.386Z,16.81
2023-06-19T09:08:44.428Z,16.91
2023-06-19T09:11:12.462Z,16.98
2023-06-19T09:13:39.508Z,17.10
2023-06-19T09:16:08.846Z,17.11
2023-06-19T09:18:49.312Z,17.10
2023-06-19T09:21:20.612Z,16.76
2023-06-19T09:23:47.774Z,16.99
2023-06-19T09:26:18.545Z,17.01
2023-06-19T09:28:45.844Z,16.98
2023-06-19T09:31:12.804Z,17.01
2023-06-19T09:33:40.768Z,17.11
2023-06-19T09:36:08.387Z,17.30
2023-06-19T09:38:38.694Z,17.41
2023-06-19T09:41:16.703Z,17.41
2023-06-19T09:43:48.576Z,17.24
2023-06-19T09:46:16.170Z,17.26
2023-06-19T09:48:45.380Z,17.30
2023-06-19T09:51:24.627Z,17.36
2023-06-19T09:53:51.652Z,17.29
2023-06-19T09:56:19.572Z,17.24
2023-06-19T09:58:47.240Z,17.37
2023-06-19T10:01:15.517Z,17.44
2023-06-19T10:03:42.342Z,17.25
2023-06-19T10:06:15.525Z,16.87
2023-06-19T10:08:43.984Z,16.45
2023-06-19T10:11:11.700Z,16.52
2023-06-19T10:13:42.010Z,16.58
2023-06-19T10:16:20.325Z,16.69
2023-06-19T10:18:48.817Z,16.74
2023-06-19T10:21:20.001Z,16.91
2023-06-19T10:23:59.757Z,17.02
2023-06-19T10:26:34.181Z,17.15
2023-06-19T10:29:01.661Z,17.29
2023-06-19T10:31:28.555Z,17.37
2023-06-19T10:33:55.460Z,17.42
2023-06-19T10:36:24.217Z,17.60
2023-06-19T10:38:51.153Z,17.83
2023-06-19T10:41:22.818Z,17.95
2023-06-19T10:44:06.990Z,18.19
2023-06-19T10:46:35.947Z,18.43
2023-06-19T10:49:04.506Z,18.60
2023-06-19T10:51:32.820Z,18.73
2023-06-19T10:53:59.665Z,18.77
2023-06-19T10:56:27.015Z,18.71
2023-06-19T10:59:11.032Z,18.89
2023-06-19T11:01:40.754Z,19.06
2023-06-19T11:04:09.110Z,19.10
2023-06-19T11:06:36.662Z,19.10
2023-06-19T11:09:07.167Z,18.90
2023-06-19T11:11:45.400Z,18.86
2023-06-19T11:14:14.016Z,18.54
2023-06-19T11:16:46.721Z,18.46
2023-06-19T11:19:19.028Z,18.55
2023-06-19T11:21:52.104Z,18.60
2023-06-19T11:24:19.962Z,18.75
2023-06-19T11:26:49.037Z,19.04
2023-06-19T11:29:32.192Z,19.33
2023-06-19T11:32:08.901Z,19.63
2023-06-19T11:34:37.150Z,19.88
2023-06-19T11:37:16.695Z,20.04
2023-06-19T11:39:48.567Z,19.54
2023-06-19T11:42:16.340Z,19.79
2023-06-19T11:45:02.753Z,19.96
2023-06-19T11:47:31.726Z,19.30
2023-06-19T11:49:59.391Z,19.42
2023-06-19T11:52:26.285Z,19.40
2023-06-19T11:54:53.231Z,18.95
2023-06-19T11:57:20.146Z,18.88
2023-06-19T11:59:47.000Z,19.21
2023-06-19T12:02:14.423Z,19.64
2023-06-19T12:04:41.554Z,20.03
2023-06-19T12:07:08.823Z,20.23
2023-06-19T12:09:35.930Z,19.78
2023-06-19T12:12:02.768Z,19.36
2023-06-19T12:14:29.684Z,18.94
2023-06-19T12:16:56.631Z,19.11
2023-06-19T12:19:23.548Z,19.38
2023-06-19T12:21:50.803Z,19.25
2023-06-19T12:24:17.653Z,19.43
2023-06-19T12:26:44.677Z,19.51
2023-06-19T12:29:11.789Z,19.70
2023-06-19T12:31:38.840Z,19.61
2023-06-19T12:34:13.999Z,18.90
2023-06-19T12:36:48.031Z,18.61
2023-06-19T12:39:14.887Z,18.68
2023-06-19T12:41:41.938Z,18.61
2023-06-19T12:44:08.907Z,18.64
2023-06-19T12:46:35.997Z,19.04
2023-06-19T12:49:02.952Z,19.09
2023-06-19T12:51:29.902Z,18.89
2023-06-19T12:53:56.805Z,18.97
2023-06-19T12:56:23.861Z,19.13
2023-06-19T12:58:50.764Z,19.35
2023-06-19T13:01:17.825Z,19.58
2023-06-19T13:03:44.882Z,19.65
2023-06-19T13:06:11.879Z,19.54
2023-06-19T13:08:38.812Z,19.77
2023-06-19T13:11:05.704Z,19.76
2023-06-19T13:13:32.716Z,19.51
2023-06-19T13:15:59.735Z,19.43
2023-06-19T13:18:26.880Z,19.05
2023-06-19T13:20:53.896Z,19.14
2023-06-19T13:23:20.951Z,19.07
2023-06-19T13:25:47.980Z,19.38
2023-06-19T13:28:14.903Z,19.37
2023-06-19T13:30:41.749Z,19.25
2023-06-19T13:33:08.751Z,19.12
2023-06-19T13:35:35.885Z,19.08
2023-06-19T13:38:02.730Z,19.19
2023-06-19T13:40:29.611Z,19.31
2023-06-19T13:42:56.873Z,19.47
2023-06-19T13:45:25.553Z,19.54
2023-06-19T13:47:52.653Z,19.70
2023-06-19T13:50:19.607Z,19.91
2023-06-19T13:52:47.341Z,20.21
2023-06-19T13:55:14.826Z,20.12
2023-06-19T13:57:42.424Z,19.64
2023-06-19T14:00:12.133Z,19.32
2023-06-19T14:02:40.203Z,19.17
2023-06-19T14:05:08.680Z,19.00
2023-06-19T14:07:36.507Z,19.05
2023-06-19T14:10:05.305Z,19.13
2023-06-19T14:12:32.615Z,19.13
2023-06-19T14:14:59.667Z,19.38
2023-06-19T14:17:26.608Z,19.39
2023-06-19T14:19:53.619Z,19.48
2023-06-19T14:22:20.501Z,19.73
2023-06-19T14:24:47.368Z,19.76
2023-06-19T14:27:14.385Z,19.67
2023-06-19T14:29:41.266Z,19.54
2023-06-19T14:32:08.128Z,19.67
2023-06-19T14:34:35.294Z,19.71
2023-06-19T14:37:05.176Z,19.80
2023-06-19T14:39:32.141Z,20.14
2023-06-19T14:41:59.278Z,20.20
2023-06-19T14:44:26.334Z,20.30
2023-06-19T14:46:53.364Z,20.24
2023-06-19T14:49:22.108Z,20.20
2023-06-19T14:51:49.243Z,20.04
2023-06-19T14:54:16.345Z,20.03
2023-06-19T14:56:43.189Z,19.99
2023-06-19T14:59:10.280Z,19.94
2023-06-19T15:01:37.373Z,19.46
2023-06-19T15:04:04.715Z,19.29
2023-06-19T15:06:31.716Z,19.13
2023-06-19T15:08:59.071Z,19.05
2023-06-19T15:11:27.336Z,18.90
2023-06-19T15:13:54.158Z,18.71
2023-06-19T15:16:21.081Z,18.64
2023-06-19T15:18:48.103Z,18.67
2023-06-19T15:21:15.486Z,18.64
2023-06-19T15:23:42.378Z,18.63
2023-06-19T15:26:09.392Z,18.64
2023-06-19T15:28:36.228Z,18.64
2023-06-19T15:31:03.624Z,18.64
2023-06-19T15:33:30.695Z,18.64
2023-06-19T15:35:57.580Z,18.55
2023-06-19T15:38:24.520Z,18.42
2023-06-19T15:40:52.065Z,18.39
2023-06-19T15:43:19.086Z,18.43
2023-06-19T15:45:45.981Z,18.35
2023-06-19T15:48:13.131Z,18.30
2023-06-19T15:50:40.577Z,18.30
2023-06-19T15:53:07.418Z,18.19
2023-06-19T15:55:34.387Z,18.09
2023-06-19T15:58:01.372Z,17.90
2023-06-19T16:00:28.423Z,17.80
2023-06-19T16:02:55.536Z,17.80
2023-06-19T16:05:22.557Z,17.70
2023-06-19T16:07:49.416Z,17.70
2023-06-19T16:10:16.274Z,17.70
2023-06-19T16:12:43.113Z,17.77
2023-06-19T16:15:10.554Z,17.86
2023-06-19T16:17:37.823Z,17.95
2023-06-19T16:20:05.146Z,17.82
2023-06-19T16:22:32.102Z,17.81
2023-06-19T16:24:59.000Z,17.85
2023-06-19T16:27:25.925Z,17.84
2023-06-19T16:29:52.986Z,17.83
2023-06-19T16:32:20.265Z,17.77
2023-06-19T16:34:47.464Z,17.79
2023-06-19T16:37:14.406Z,17.75
2023-06-19T16:39:41.867Z,17.82
2023-06-19T16:42:08.862Z,17.72
2023-06-19T16:44:35.766Z,17.64
2023-06-19T16:47:02.874Z,17.59
2023-06-19T16:49:29.854Z,17.60
2023-06-19T16:51:56.666Z,17.71
2023-06-19T16:54:23.645Z,17.80
2023-06-19T16:56:50.482Z,17.78
2023-06-19T16:59:17.313Z,17.66
2023-06-19T17:01:44.559Z,17.56
2023-06-19T17:04:11.580Z,17.64
2023-06-19T17:06:38.646Z,17.53
2023-06-19T17:09:05.605Z,17.54
2023-06-19T17:11:32.540Z,17.65
2023-06-19T17:13:59.450Z,17.46
2023-06-19T17:16:28.625Z,17.34
2023-06-19T17:18:55.561Z,17.38
2023-06-19T17:21:22.994Z,17.21
2023-06-19T17:23:49.992Z,17.16
2023-06-19T17:26:16.976Z,17.20
2023-06-19T17:28:43.914Z,17.25
2023-06-19T17:31:10.794Z,17.33
2023-06-19T17:33:37.622Z,17.32
2023-06-19T17:36:04.895Z,17.46
2023-06-19T17:38:31.848Z,17.59
2023-06-19T17:40:58.823Z,17.51
2023-06-19T17:43:25.671Z,17.48
2023-06-19T17:45:52.732Z,17.44
2023-06-19T17:48:19.602Z,17.42
2023-06-19T17:50:46.499Z,17.57
2023-06-19T17:53:13.540Z,17.53
2023-06-19T17:55:40.757Z,17.58
2023-06-19T17:58:07.696Z,17.50
2023-06-19T18:00:34.746Z,17.45
2023-06-19T18:03:01.685Z,17.39
2023-06-19T18:05:28.622Z,17.40
2023-06-19T18:07:55.683Z,17.39
2023-06-19T18:10:22.822Z,17.33
2023-06-19T18:12:50.006Z,17.35
2023-06-19T18:15:17.695Z,17.39
2023-06-19T18:17:44.664Z,17.46
2023-06-19T18:20:12.479Z,17.46
2023-06-19T18:22:39.437Z,17.50
2023-06-19T18:25:06.591Z,17.57
2023-06-19T18:27:33.656Z,17.60
2023-06-19T18:30:04.018Z,17.59
2023-06-19T18:32:31.709Z,17.53
2023-06-19T18:34:58.678Z,17.50
2023-06-19T18:37:25.689Z,17.49
2023-06-19T18:39:52.562Z,17.54
2023-06-19T18:42:19.514Z,17.50
2023-06-19T18:44:46.481Z,17.37
2023-06-19T18:47:13.543Z,17.40
2023-06-19T18:49:40.354Z,17.34
2023-06-19T18:52:07.791Z,17.28
2023-06-19T18:54:34.712Z,17.19
2023-06-19T18:57:01.583Z,17.14
2023-06-19T18:59:28.588Z,17.07
2023-06-19T19:01:55.580Z,17.16
2023-06-19T19:04:22.525Z,17.08
2023-06-19T19:06:49.380Z,17.07
2023-06-19T19:09:16.204Z,16.93
2023-06-19T19:11:43.031Z,16.80
2023-06-19T19:14:10.002Z,16.79
2023-06-19T19:16:37.100Z,16.73
2023-06-19T19:19:04.022Z,16.77
2023-06-19T19:21:31.014Z,16.75
2023-06-19T19:23:57.921Z,16.74
2023-06-19T19:26:25.153Z,16.76
2023-06-19T19:28:52.080Z,16.69
2023-06-19T19:31:18.946Z,16.67
2023-06-19T19:33:45.979Z,16.59
2023-06-19T19:36:13.124Z,16.51
2023-06-19T19:38:40.036Z,16.41
2023-06-19T19:41:07.018Z,16.30
2023-06-19T19:43:33.985Z,16.30
2023-06-19T19:46:01.026Z,16.28
2023-06-19T19:48:28.078Z,16.23
2023-06-19T19:50:55.186Z,16.17
2023-06-19T19:53:22.221Z,16.05
2023-06-19T19:55:49.314Z,16.06
2023-06-19T19:58:16.247Z,16.07
2023-06-19T20:00:43.265Z,16.01
2023-06-19T20:03:10.251Z,15.95
2023-06-19T20:05:37.354Z,15.89
2023-06-19T20:08:04.503Z,15.89
2023-06-19T20:10:31.448Z,15.96
2023-06-19T20:12:58.411Z,15.95
2023-06-19T20:15:25.275Z,15.85
2023-06-19T20:17:52.449Z,15.81
2023-06-19T20:20:19.355Z,15.82
2023-06-19T20:22:46.256Z,15.79
2023-06-19T20:25:13.185Z,15.80
2023-06-19T20:27:40.154Z,15.83
2023-06-19T20:30:07.733Z,15.81
2023-06-19T20:32:34.645Z,15.85
2023-06-19T20:35:01.641Z,15.83
2023-06-19T20:37:28.462Z,15.82
2023-06-19T20:39:55.344Z,15.93
2023-06-19T20:42:22.230Z,15.99
2023-06-19T20:44:49.059Z,16.11
2023-06-19T20:47:15.981Z,16.18
2023-06-19T20:49:42.979Z,16.27
2023-06-19T20:52:09.836Z,16.18
2023-06-19T20:54:36.739Z,16.16
2023-06-19T20:57:03.792Z,16.23
2023-06-19T20:59:30.628Z,16.23
2023-06-19T21:01:57.556Z,16.28
2023-06-19T21:04:24.523Z,16.24
2023-06-19T21:06:51.413Z,16.30
2023-06-19T21:09:18.391Z,16.28
2023-06-19T21:11:46.556Z,16.17
2023-06-19T21:14:13.542Z,16.13
2023-06-19T21:16:40.494Z,16.10
2023-06-19T21:19:07.869Z,16.15
2023-06-19T21:21:34.746Z,16.13
2023-06-19T21:24:01.643Z,16.18
2023-06-19T21:26:28.737Z,16.21
2023-06-19T21:28:55.519Z,16.29
2023-06-19T21:31:22.349Z,16.31
2023-06-19T21:33:49.286Z,16.32
2023-06-19T21:36:16.186Z,16.37
2023-06-19T21:38:43.067Z,16.38
2023-06-19T21:41:10.050Z,16.44
2023-06-19T21:43:36.850Z,16.45
2023-06-19T21:46:03.728Z,16.36
2023-06-19T21:48:30.634Z,16.32
2023-06-19T21:50:57.595Z,16.28
2023-06-19T21:53:24.620Z,16.37
2023-06-19T21:55:51.599Z,16.36
2023-06-19T21:58:18.462Z,16.20
2023-06-19T22:00:45.566Z,16.10
2023-06-19T22:03:12.575Z,16.05
2023-06-19T22:05:39.778Z,16.02
2023-06-19T22:08:06.709Z,15.89
2023-06-19T22:10:33.567Z,15.89
2023-06-19T22:13:00.435Z,15.87
2023-06-19T22:15:27.384Z,15.94
2023-06-19T22:17:54.339Z,16.01
2023-06-19T22:20:21.261Z,16.12
2023-06-19T22:22:49.175Z,16.18
2023-06-19T22:25:16.395Z,16.15
2023-06-19T22:27:43.348Z,16.05
2023-06-19T22:30:10.694Z,15.97
2023-06-19T22:32:37.746Z,16.04
2023-06-19T22:35:05.448Z,15.97
2023-06-19T22:37:32.911Z,15.97
2023-06-19T22:40:00.028Z,16.06
2023-06-19T22:42:26.871Z,16.04
2023-06-19T22:44:53.755Z,15.95
2023-06-19T22:47:20.637Z,15.94
2023-06-19T22:49:47.476Z,15.94
2023-06-19T22:52:14.391Z,15.86
2023-06-19T22:54:41.337Z,15.85
2023-06-19T22:57:08.221Z,15.73
2023-06-19T22:59:35.091Z,15.62
2023-06-19T23:02:02.209Z,15.55
2023-06-19T23:04:29.059Z,15.58
2023-06-19T23:06:55.903Z,15.72
2023-06-19T23:09:22.823Z,15.85
2023-06-19T23:11:49.671Z,15.90
2023-06-19T23:14:16.528Z,16.02
2023-06-19T23:16:43.423Z,16.08
2023-06-19T23:19:10.318Z,16.13
2023-06-19T23:21:37.215Z,16.21
2023-06-19T23:24:04.389Z,16.23
2023-06-19T23:26:31.261Z,16.24
2023-06-19T23:28:58.174Z,16.27
2023-06-19T23:31:25.094Z,16.30
2023-06-19T23:33:52.751Z,16.33
2023-06-19T23:36:19.760Z,16.38
2023-06-19T23:38:47.309Z,16.41
2023-06-19T23:41:14.172Z,16.38
2023-06-19T23:43:41.123Z,16.37
2023-06-19T23:46:09.093Z,16.42
2023-06-19T23:48:36.046Z,16.45
2023-06-19T23:51:03.299Z,16.46
2023-06-19T23:53:30.510Z,16.47
2023-06-19T23:55:57.335Z,16.44
2023-06-19T23:58:24.396Z,16.41
